sensor_id;sensor_type;location;lat;lon;timestamp;pressure;altitude;pressure_sealevel;temperature;humidity
23619;BME280;18207;32.078;34.818;2022-11-06T00:00:53;101023.81;;;27.99;42.27
23619;BME280;18207;32.078;34.818;2022-11-06T00:03:25;101019.81;;;28.00;42.40
23619;BME280;18207;32.078;34.818;2022-11-06T00:05:55;101017.38;;;27.99;42.52
23619;BME280;18207;32.078;34.818;2022-11-06T00:08:42;101014.91;;;27.97;42.49
23619;BME280;18207;32.078;34.818;2022-11-06T00:11:15;101009.25;;;27.97;42.73
23619;BME280;18207;32.078;34.818;2022-11-06T00:13:46;101009.25;;;27.97;42.59
23619;BME280;18207;32.078;34.818;2022-11-06T00:16:17;101006.81;;;27.96;42.46
23619;BME280;18207;32.078;34.818;2022-11-06T00:18:50;101014.44;;;27.95;42.45
23619;BME280;18207;32.078;34.818;2022-11-06T00:21:24;101013.66;;;27.95;42.74
23619;BME280;18207;32.078;34.818;2022-11-06T00:23:57;101013.22;;;27.93;42.60
23619;BME280;18207;32.078;34.818;2022-11-06T00:26:30;101015.22;;;27.92;42.54
23619;BME280;18207;32.078;34.818;2022-11-06T00:29:02;101020.84;;;27.89;42.31
23619;BME280;18207;32.078;34.818;2022-11-06T00:31:36;101007.91;;;27.88;42.55
23619;BME280;18207;32.078;34.818;2022-11-06T00:34:09;101009.88;;;27.87;42.54
23619;BME280;18207;32.078;34.818;2022-11-06T00:36:39;101021.56;;;27.86;42.69
23619;BME280;18207;32.078;34.818;2022-11-06T00:39:11;101014.69;;;27.83;42.44
23619;BME280;18207;32.078;34.818;2022-11-06T00:41:41;101018.69;;;27.82;42.71
23619;BME280;18207;32.078;34.818;2022-11-06T00:44:11;101014.25;;;27.81;42.55
23619;BME280;18207;32.078;34.818;2022-11-06T00:46:42;101010.59;;;27.81;42.77
23619;BME280;18207;32.078;34.818;2022-11-06T00:49:16;101010.16;;;27.79;42.69
23619;BME280;18207;32.078;34.818;2022-11-06T00:51:46;101016.19;;;27.77;42.55
23619;BME280;18207;32.078;34.818;2022-11-06T00:54:17;101012.09;;;27.75;42.86
23619;BME280;18207;32.078;34.818;2022-11-06T00:56:48;101020.56;;;27.75;42.61
23619;BME280;18207;32.078;34.818;2022-11-06T00:59:19;101018.16;;;27.74;42.63
23619;BME280;18207;32.078;34.818;2022-11-06T01:01:49;101017.31;;;27.73;42.41
23619;BME280;18207;32.078;34.818;2022-11-06T01:04:23;101016.50;;;27.73;42.67
23619;BME280;18207;32.078;34.818;2022-11-06T01:06:54;101013.25;;;27.71;42.68
23619;BME280;18207;32.078;34.818;2022-11-06T01:09:27;101010.41;;;27.71;42.58
23619;BME280;18207;32.078;34.818;2022-11-06T01:11:59;101015.25;;;27.70;42.72
23619;BME280;18207;32.078;34.818;2022-11-06T01:14:45;101017.25;;;27.70;42.69
23619;BME280;18207;32.078;34.818;2022-11-06T01:17:15;101015.25;;;27.70;42.77
23619;BME280;18207;32.078;34.818;2022-11-06T01:19:48;101009.63;;;27.70;42.73
23619;BME280;18207;32.078;34.818;2022-11-06T01:22:18;101009.16;;;27.68;42.82
23619;BME280;18207;32.078;34.818;2022-11-06T01:24:49;101010.34;;;27.67;42.82
23619;BME280;18207;32.078;34.818;2022-11-06T01:27:19;101009.13;;;27.65;42.73
23619;BME280;18207;32.078;34.818;2022-11-06T01:29:54;100999.34;;;27.62;42.83
23619;BME280;18207;32.078;34.818;2022-11-06T01:32:25;100994.53;;;27.63;42.89
23619;BME280;18207;32.078;34.818;2022-11-06T01:34:56;101001.00;;;27.63;42.78
23619;BME280;18207;32.078;34.818;2022-11-06T01:37:27;100991.72;;;27.63;42.83
23619;BME280;18207;32.078;34.818;2022-11-06T01:39:57;100995.34;;;27.63;42.63
23619;BME280;18207;32.078;34.818;2022-11-06T01:42:31;101003.81;;;27.63;42.69
23619;BME280;18207;32.078;34.818;2022-11-06T01:45:26;101000.19;;;27.63;42.90
23619;BME280;18207;32.078;34.818;2022-11-06T01:47:59;101012.28;;;27.63;43.00
23619;BME280;18207;32.078;34.818;2022-11-06T01:50:32;101003.81;;;27.63;42.73
23619;BME280;18207;32.078;34.818;2022-11-06T01:53:03;100998.19;;;27.63;42.99
23619;BME280;18207;32.078;34.818;2022-11-06T01:55:42;100999.81;;;27.64;42.81
23619;BME280;18207;32.078;34.818;2022-11-06T01:58:19;101003.47;;;27.65;42.80
23619;BME280;18207;32.078;34.818;2022-11-06T02:00:51;101005.09;;;27.66;42.82
23619;BME280;18207;32.078;34.818;2022-11-06T02:03:22;101007.09;;;27.65;42.43
23619;BME280;18207;32.078;34.818;2022-11-06T02:05:56;100999.44;;;27.66;42.64
23619;BME280;18207;32.078;34.818;2022-11-06T02:08:27;101004.25;;;27.65;42.70
23619;BME280;18207;32.078;34.818;2022-11-06T02:10:58;101009.47;;;27.63;42.83
23619;BME280;18207;32.078;34.818;2022-11-06T02:13:42;101001.84;;;27.64;42.74
23619;BME280;18207;32.078;34.818;2022-11-06T02:16:23;100999.34;;;27.62;42.98
23619;BME280;18207;32.078;34.818;2022-11-06T02:19:22;101000.91;;;27.60;42.86
23619;BME280;18207;32.078;34.818;2022-11-06T02:22:25;101002.09;;;27.59;42.64
23619;BME280;18207;32.078;34.818;2022-11-06T02:25:15;100999.28;;;27.59;43.00
23619;BME280;18207;32.078;34.818;2022-11-06T02:28:00;100992.00;;;27.58;42.86
23619;BME280;18207;32.078;34.818;2022-11-06T02:30:38;101004.91;;;27.59;42.70
23619;BME280;18207;32.078;34.818;2022-11-06T02:33:15;100996.44;;;27.59;42.92
23619;BME280;18207;32.078;34.818;2022-11-06T02:35:55;100992.44;;;27.60;42.83
23619;BME280;18207;32.078;34.818;2022-11-06T02:38:33;100988.81;;;27.59;43.03
23619;BME280;18207;32.078;34.818;2022-11-06T02:41:09;100996.44;;;27.59;42.79
23619;BME280;18207;32.078;34.818;2022-11-06T02:43:47;100992.81;;;27.58;43.02
23619;BME280;18207;32.078;34.818;2022-11-06T02:46:25;100986.34;;;27.58;42.84
23619;BME280;18207;32.078;34.818;2022-11-06T02:49:02;100989.16;;;27.58;42.93
23619;BME280;18207;32.078;34.818;2022-11-06T02:51:41;100984.34;;;27.58;42.86
23619;BME280;18207;32.078;34.818;2022-11-06T02:54:14;100980.69;;;27.58;42.92
23619;BME280;18207;32.078;34.818;2022-11-06T02:56:50;100977.06;;;27.57;43.00
23619;BME280;18207;32.078;34.818;2022-11-06T02:59:30;100981.88;;;27.57;43.14
23619;BME280;18207;32.078;34.818;2022-11-06T03:02:06;100981.09;;;27.56;42.98
23619;BME280;18207;32.078;34.818;2022-11-06T03:04:47;100989.16;;;27.58;42.98
23619;BME280;18207;32.078;34.818;2022-11-06T03:07:30;100990.00;;;27.58;43.00
23619;BME280;18207;32.078;34.818;2022-11-06T03:10:03;100983.53;;;27.58;42.78
23619;BME280;18207;32.078;34.818;2022-11-06T03:12:47;100986.34;;;27.58;43.22
23619;BME280;18207;32.078;34.818;2022-11-06T03:15:29;100987.19;;;27.58;43.11
23619;BME280;18207;32.078;34.818;2022-11-06T03:18:11;100998.81;;;27.57;43.03
23619;BME280;18207;32.078;34.818;2022-11-06T03:20:56;101006.50;;;27.56;43.07
23619;BME280;18207;32.078;34.818;2022-11-06T03:23:36;101009.72;;;27.55;42.98
23619;BME280;18207;32.078;34.818;2022-11-06T03:26:16;101017.75;;;27.53;43.11
23619;BME280;18207;32.078;34.818;2022-11-06T03:28:53;101014.91;;;27.53;43.24
23619;BME280;18207;32.078;34.818;2022-11-06T03:31:35;101010.84;;;27.50;43.03
23619;BME280;18207;32.078;34.818;2022-11-06T03:34:13;101006.38;;;27.49;43.08
23619;BME280;18207;32.078;34.818;2022-11-06T03:36:52;101004.75;;;27.48;43.01
23619;BME280;18207;32.078;34.818;2022-11-06T03:39:30;101003.91;;;27.48;43.19
23619;BME280;18207;32.078;34.818;2022-11-06T03:42:06;101008.75;;;27.47;43.16
23619;BME280;18207;32.078;34.818;2022-11-06T03:44:43;101005.09;;;27.47;43.15
23619;BME280;18207;32.078;34.818;2022-11-06T03:47:23;100993.81;;;27.47;43.23
23619;BME280;18207;32.078;34.818;2022-11-06T03:50:03;100993.00;;;27.46;43.26
23619;BME280;18207;32.078;34.818;2022-11-06T03:52:38;100999.09;;;27.48;43.11
23619;BME280;18207;32.078;34.818;2022-11-06T03:55:16;101004.34;;;27.50;43.38
23619;BME280;18207;32.078;34.818;2022-11-06T03:57:52;101001.97;;;27.52;43.50
23619;BME280;18207;32.078;34.818;2022-11-06T04:00:25;100999.97;;;27.52;43.36
23619;BME280;18207;32.078;34.818;2022-11-06T04:03:05;101004.06;;;27.55;43.36
23619;BME280;18207;32.078;34.818;2022-11-06T04:05:43;101007.69;;;27.55;43.07
23619;BME280;18207;32.078;34.818;2022-11-06T04:08:17;101003.69;;;27.56;43.29
23619;BME280;18207;32.078;34.818;2022-11-06T04:11:08;101006.88;;;27.55;43.45
23619;BME280;18207;32.078;34.818;2022-11-06T04:13:58;101014.91;;;27.53;43.46
23619;BME280;18207;32.078;34.818;2022-11-06T04:16:47;101017.75;;;27.53;43.50
23619;BME280;18207;32.078;34.818;2022-11-06T04:19:23;101019.31;;;27.50;43.33
23619;BME280;18207;32.078;34.818;2022-11-06T04:22:12;101026.94;;;27.50;43.41
23619;BME280;18207;32.078;34.818;2022-11-06T04:25:00;101024.13;;;27.50;43.31
23619;BME280;18207;32.078;34.818;2022-11-06T04:28:11;101025.75;;;27.51;43.28
23619;BME280;18207;32.078;34.818;2022-11-06T04:30:59;101022.94;;;27.51;43.38
23619;BME280;18207;32.078;34.818;2022-11-06T04:33:40;101029.47;;;27.55;43.39
23619;BME280;18207;32.078;34.818;2022-11-06T04:36:22;101027.91;;;27.57;43.60
23619;BME280;18207;32.078;34.818;2022-11-06T04:39:07;101023.88;;;27.58;43.56
23619;BME280;18207;32.078;34.818;2022-11-06T04:41:50;101025.94;;;27.61;43.65
23619;BME280;18207;32.078;34.818;2022-11-06T04:44:31;101022.78;;;27.63;43.49
23619;BME280;18207;32.078;34.818;2022-11-06T04:47:06;101026.47;;;27.67;43.83
23619;BME280;18207;32.078;34.818;2022-11-06T04:49:40;101033.00;;;27.71;43.58
23619;BME280;18207;32.078;34.818;2022-11-06T04:52:18;101043.19;;;27.75;43.77
23619;BME280;18207;32.078;34.818;2022-11-06T04:54:50;101036.78;;;27.78;43.85
23619;BME280;18207;32.078;34.818;2022-11-06T04:57:22;101042.94;;;27.83;43.79
23619;BME280;18207;32.078;34.818;2022-11-06T04:59:53;101045.44;;;27.88;44.08
23619;BME280;18207;32.078;34.818;2022-11-06T05:02:24;101048.75;;;27.94;43.99
23619;BME280;18207;32.078;34.818;2022-11-06T05:04:55;101054.16;;;28.02;44.00
23619;BME280;18207;32.078;34.818;2022-11-06T05:07:28;101062.00;;;28.12;44.35
23619;BME280;18207;32.078;34.818;2022-11-06T05:09:59;101060.53;;;28.22;44.32
23619;BME280;18207;32.078;34.818;2022-11-06T05:12:30;101062.66;;;28.28;44.37
23619;BME280;18207;32.078;34.818;2022-11-06T05:15:01;101057.56;;;28.37;44.18
23619;BME280;18207;32.078;34.818;2022-11-06T05:17:32;101058.94;;;28.47;44.33
23619;BME280;18207;32.078;34.818;2022-11-06T05:20:05;101064.38;;;28.59;44.57
23619;BME280;18207;32.078;34.818;2022-11-06T05:22:42;101065.31;;;28.69;44.17
23619;BME280;18207;32.078;34.818;2022-11-06T05:25:30;101059.38;;;28.78;44.29
23619;BME280;18207;32.078;34.818;2022-11-06T05:28:03;101057.09;;;28.87;44.76
23619;BME280;18207;32.078;34.818;2022-11-06T05:30:36;101062.06;;;28.97;44.56
23619;BME280;18207;32.078;34.818;2022-11-06T05:33:07;101059.00;;;29.09;44.50
23619;BME280;18207;32.078;34.818;2022-11-06T05:35:38;101055.88;;;29.17;44.56
23619;BME280;18207;32.078;34.818;2022-11-06T05:38:11;101060.41;;;29.25;44.16
23619;BME280;18207;32.078;34.818;2022-11-06T05:40:43;101062.56;;;29.35;44.40
23619;BME280;18207;32.078;34.818;2022-11-06T05:43:13;101061.88;;;29.45;44.29
23619;BME280;18207;32.078;34.818;2022-11-06T05:45:44;101068.06;;;29.54;44.36
23619;BME280;18207;32.078;34.818;2022-11-06T05:48:15;101059.66;;;29.64;44.38
23619;BME280;18207;32.078;34.818;2022-11-06T05:50:46;101065.03;;;29.76;44.57
23619;BME280;18207;32.078;34.818;2022-11-06T05:53:18;101074.03;;;29.85;44.54
23619;BME280;18207;32.078;34.818;2022-11-06T05:55:48;101072.13;;;29.96;44.32
23619;BME280;18207;32.078;34.818;2022-11-06T05:58:18;101083.94;;;30.05;44.17
23619;BME280;18207;32.078;34.818;2022-11-06T06:00:50;101085.63;;;30.13;44.21
23619;BME280;18207;32.078;34.818;2022-11-06T06:03:23;101084.53;;;30.25;44.30
23619;BME280;18207;32.078;34.818;2022-11-06T06:05:53;101091.06;;;30.36;44.06
23619;BME280;18207;32.078;34.818;2022-11-06T06:08:25;101088.75;;;30.44;44.55
23619;BME280;18207;32.078;34.818;2022-11-06T06:10:55;101096.53;;;30.54;44.35
23619;BME280;18207;32.078;34.818;2022-11-06T06:13:26;101089.72;;;30.66;44.32
23619;BME280;18207;32.078;34.818;2022-11-06T06:16:00;101099.53;;;30.79;44.21
23619;BME280;18207;32.078;34.818;2022-11-06T06:18:31;101092.28;;;30.92;43.93
23619;BME280;18207;32.078;34.818;2022-11-06T06:21:02;101092.78;;;31.04;43.84
23619;BME280;18207;32.078;34.818;2022-11-06T06:23:34;101090.03;;;31.18;43.78
23619;BME280;18207;32.078;34.818;2022-11-06T06:26:05;101092.50;;;31.30;44.02
23619;BME280;18207;32.078;34.818;2022-11-06T06:28:36;101092.16;;;31.42;44.08
23619;BME280;18207;32.078;34.818;2022-11-06T06:31:08;101085.25;;;31.53;43.54
23619;BME280;18207;32.078;34.818;2022-11-06T06:33:39;101092.63;;;31.65;43.99
23619;BME280;18207;32.078;34.818;2022-11-06T06:36:10;101088.19;;;31.74;43.41
23619;BME280;18207;32.078;34.818;2022-11-06T06:38:43;101091.44;;;31.83;43.89
23619;BME280;18207;32.078;34.818;2022-11-06T06:41:14;101084.53;;;31.91;43.92
23619;BME280;18207;32.078;34.818;2022-11-06T06:43:47;101092.69;;;32.00;43.27
23619;BME280;18207;32.078;34.818;2022-11-06T06:46:18;101082.13;;;32.07;43.53
23619;BME280;18207;32.078;34.818;2022-11-06T06:48:49;101082.53;;;32.13;43.38
23619;BME280;18207;32.078;34.818;2022-11-06T06:51:19;101082.16;;;32.18;43.28
23619;BME280;18207;32.078;34.818;2022-11-06T06:53:52;101078.91;;;32.19;43.38
23619;BME280;18207;32.078;34.818;2022-11-06T06:56:22;101080.94;;;32.22;42.91
23619;BME280;18207;32.078;34.818;2022-11-06T06:58:53;101072.38;;;32.25;42.73
23619;BME280;18207;32.078;34.818;2022-11-06T07:01:25;101078.50;;;32.31;42.78
23619;BME280;18207;32.078;34.818;2022-11-06T07:03:55;101070.78;;;32.35;42.63
23619;BME280;18207;32.078;34.818;2022-11-06T07:06:31;101074.81;;;32.41;42.70
23619;BME280;18207;32.078;34.818;2022-11-06T07:09:03;101075.63;;;32.48;43.22
23619;BME280;18207;32.078;34.818;2022-11-06T07:11:36;101076.47;;;32.59;43.20
23619;BME280;18207;32.078;34.818;2022-11-06T07:14:08;101075.63;;;32.69;43.13
23619;BME280;18207;32.078;34.818;2022-11-06T07:16:39;101076.78;;;32.79;42.89
23619;BME280;18207;32.078;34.818;2022-11-06T07:19:09;101073.91;;;32.86;43.06
23619;BME280;18207;32.078;34.818;2022-11-06T07:21:40;101069.44;;;32.92;42.45
23619;BME280;18207;32.078;34.818;2022-11-06T07:24:13;101064.13;;;32.97;43.04
23619;BME280;18207;32.078;34.818;2022-11-06T07:26:45;101060.44;;;33.04;42.92
23619;BME280;18207;32.078;34.818;2022-11-06T07:29:17;101059.22;;;33.12;42.86
23619;BME280;18207;32.078;34.818;2022-11-06T07:31:47;101058.75;;;33.20;42.42
23619;BME280;18207;32.078;34.818;2022-11-06T07:34:17;101063.22;;;33.28;42.55
23619;BME280;18207;32.078;34.818;2022-11-06T07:36:48;101059.91;;;33.36;42.59
23619;BME280;18207;32.078;34.818;2022-11-06T07:39:19;101058.63;;;33.44;42.80
23619;BME280;18207;32.078;34.818;2022-11-06T07:41:49;101055.72;;;33.55;42.96
23619;BME280;18207;32.078;34.818;2022-11-06T07:44:20;101060.59;;;33.61;42.34
23619;BME280;18207;32.078;34.818;2022-11-06T07:46:50;101056.50;;;33.66;42.70
23619;BME280;18207;32.078;34.818;2022-11-06T07:49:21;101060.94;;;33.70;41.81
23619;BME280;18207;32.078;34.818;2022-11-06T07:51:52;101051.53;;;33.73;42.37
23619;BME280;18207;32.078;34.818;2022-11-06T07:54:26;101049.47;;;33.77;42.09
23619;BME280;18207;32.078;34.818;2022-11-06T07:56:57;101046.59;;;33.81;41.84
23619;BME280;18207;32.078;34.818;2022-11-06T07:59:27;101044.94;;;33.83;41.84
23619;BME280;18207;32.078;34.818;2022-11-06T08:02:08;101040.84;;;33.88;41.52
23619;BME280;18207;32.078;34.818;2022-11-06T08:04:44;101038.81;;;33.88;41.80
23619;BME280;18207;32.078;34.818;2022-11-06T08:07:15;101034.28;;;33.91;41.29
23619;BME280;18207;32.078;34.818;2022-11-06T08:09:48;101035.13;;;33.91;41.63
23619;BME280;18207;32.078;34.818;2022-11-06T08:12:18;101041.22;;;33.90;41.58
23619;BME280;18207;32.078;34.818;2022-11-06T08:14:49;101041.69;;;33.85;40.70
23619;BME280;18207;32.078;34.818;2022-11-06T08:17:22;101044.97;;;33.80;41.25
23619;BME280;18207;32.078;34.818;2022-11-06T08:19:54;101045.47;;;33.71;41.10
23619;BME280;18207;32.078;34.818;2022-11-06T08:22:26;101038.16;;;33.63;41.03
23619;BME280;18207;32.078;34.818;2022-11-06T08:24:59;101031.69;;;33.59;41.10
23619;BME280;18207;32.078;34.818;2022-11-06T08:27:31;101039.81;;;33.57;41.06
23619;BME280;18207;32.078;34.818;2022-11-06T08:30:02;101030.03;;;33.58;41.22
23619;BME280;18207;32.078;34.818;2022-11-06T08:32:33;101028.84;;;33.59;41.28
23619;BME280;18207;32.078;34.818;2022-11-06T08:35:06;101020.69;;;33.61;40.90
23619;BME280;18207;32.078;34.818;2022-11-06T08:37:36;101013.34;;;33.64;41.26
23619;BME280;18207;32.078;34.818;2022-11-06T08:40:11;101015.34;;;33.67;40.62
23619;BME280;18207;32.078;34.818;2022-11-06T08:42:42;101021.84;;;33.67;40.85
23619;BME280;18207;32.078;34.818;2022-11-06T08:45:13;101019.81;;;33.68;41.22
23619;BME280;18207;32.078;34.818;2022-11-06T08:47:43;101010.44;;;33.67;40.89
23619;BME280;18207;32.078;34.818;2022-11-06T08:50:14;101021.88;;;33.64;41.36
23619;BME280;18207;32.078;34.818;2022-11-06T08:52:44;101027.59;;;33.64;41.44
23619;BME280;18207;32.078;34.818;2022-11-06T08:55:17;101014.13;;;33.64;41.29
23619;BME280;18207;32.078;34.818;2022-11-06T08:57:49;101010.03;;;33.65;40.68
23619;BME280;18207;32.078;34.818;2022-11-06T09:00:35;101006.81;;;33.67;40.77
23619;BME280;18207;32.078;34.818;2022-11-06T09:03:20;101006.41;;;33.65;40.71
23619;BME280;18207;32.078;34.818;2022-11-06T09:05:52;100991.75;;;33.63;41.00
23619;BME280;18207;32.078;34.818;2022-11-06T09:08:25;100994.63;;;33.59;41.19
23619;BME280;18207;32.078;34.818;2022-11-06T09:10:58;100992.16;;;33.58;40.78
23619;BME280;18207;32.078;34.818;2022-11-06T09:13:28;101008.06;;;33.55;40.70
23619;BME280;18207;32.078;34.818;2022-11-06T09:16:00;100986.50;;;33.51;40.69
23619;BME280;18207;32.078;34.818;2022-11-06T09:18:31;100988.19;;;33.45;40.77
23619;BME280;18207;32.078;34.818;2022-11-06T09:21:01;100981.28;;;33.39;41.06
23619;BME280;18207;32.078;34.818;2022-11-06T09:23:32;100974.00;;;33.38;40.68
23619;BME280;18207;32.078;34.818;2022-11-06T09:26:05;100969.50;;;33.37;40.99
23619;BME280;18207;32.078;34.818;2022-11-06T09:28:36;100960.13;;;33.36;41.22
23619;BME280;18207;32.078;34.818;2022-11-06T09:31:06;100965.44;;;33.34;40.68
23619;BME280;18207;32.078;34.818;2022-11-06T09:33:37;100970.78;;;33.32;40.83
23619;BME280;18207;32.078;34.818;2022-11-06T09:36:08;100964.25;;;33.32;41.05
23619;BME280;18207;32.078;34.818;2022-11-06T09:38:39;100958.97;;;33.30;41.16
23619;BME280;18207;32.078;34.818;2022-11-06T09:41:21;100965.91;;;33.29;41.02
23619;BME280;18207;32.078;34.818;2022-11-06T09:44:11;100961.44;;;33.25;40.83
23619;BME280;18207;32.078;34.818;2022-11-06T09:47:05;100957.81;;;33.17;40.78
23619;BME280;18207;32.078;34.818;2022-11-06T09:49:47;100957.84;;;33.14;41.21
23619;BME280;18207;32.078;34.818;2022-11-06T09:52:28;100946.47;;;33.11;41.00
23619;BME280;18207;32.078;34.818;2022-11-06T09:55:04;100952.97;;;33.08;40.56
23619;BME280;18207;32.078;34.818;2022-11-06T09:57:46;100948.09;;;33.05;40.83
23619;BME280;18207;32.078;34.818;2022-11-06T10:00:18;100947.72;;;33.03;40.70
23619;BME280;18207;32.078;34.818;2022-11-06T10:02:51;100931.03;;;33.01;40.90
23619;BME280;18207;32.078;34.818;2022-11-06T10:05:27;100940.44;;;32.98;40.82
23619;BME280;18207;32.078;34.818;2022-11-06T10:08:02;100938.81;;;32.94;41.23
23619;BME280;18207;32.078;34.818;2022-11-06T10:10:42;100928.25;;;32.91;41.10
23619;BME280;18207;32.078;34.818;2022-11-06T10:13:38;100920.13;;;32.86;40.52
23619;BME280;18207;32.078;34.818;2022-11-06T10:16:23;100922.22;;;32.82;40.76
23619;BME280;18207;32.078;34.818;2022-11-06T10:19:09;100923.44;;;32.77;40.43
23619;BME280;18207;32.078;34.818;2022-11-06T10:21:47;100910.47;;;32.73;41.08
23619;BME280;18207;32.078;34.818;2022-11-06T10:24:23;100914.94;;;32.70;41.07
23619;BME280;18207;32.078;34.818;2022-11-06T10:26:58;100911.31;;;32.66;40.74
23619;BME280;18207;32.078;34.818;2022-11-06T10:33:02;100917.41;;;32.61;40.84
23619;BME280;18207;32.078;34.818;2022-11-06T10:35:44;100910.50;;;32.55;41.08
23619;BME280;18207;32.078;34.818;2022-11-06T10:38:23;100904.84;;;32.52;40.77
23619;BME280;18207;32.078;34.818;2022-11-06T10:40:54;100898.75;;;32.50;40.82
23619;BME280;18207;32.078;34.818;2022-11-06T10:43:31;100908.91;;;32.47;41.07
23619;BME280;18207;32.078;34.818;2022-11-06T10:46:18;100904.03;;;32.44;41.25
23619;BME280;18207;32.078;34.818;2022-11-06T10:48:56;100903.25;;;32.40;41.61
23619;BME280;18207;32.078;34.818;2022-11-06T10:52:01;100905.72;;;32.35;41.43
23619;BME280;18207;32.078;34.818;2022-11-06T10:54:52;100908.16;;;32.33;41.65
23619;BME280;18207;32.078;34.818;2022-11-06T10:57:37;100905.34;;;32.29;41.55
23619;BME280;18207;32.078;34.818;2022-11-06T11:00:13;100903.72;;;32.28;41.39
23619;BME280;18207;32.078;34.818;2022-11-06T11:02:51;100895.56;;;32.27;41.19
23619;BME280;18207;32.078;34.818;2022-11-06T11:05:25;100894.78;;;32.23;41.69
23619;BME280;18207;32.078;34.818;2022-11-06T11:07:56;100893.97;;;32.19;41.15
23619;BME280;18207;32.078;34.818;2022-11-06T11:10:29;100891.16;;;32.16;41.19
23619;BME280;18207;32.078;34.818;2022-11-06T11:13:03;100891.56;;;32.14;41.42
23619;BME280;18207;32.078;34.818;2022-11-06T11:15:43;100889.13;;;32.13;41.68
23619;BME280;18207;32.078;34.818;2022-11-06T11:18:22;100897.28;;;32.11;41.75
23619;BME280;18207;32.078;34.818;2022-11-06T11:21:13;100889.94;;;32.06;42.01
23619;BME280;18207;32.078;34.818;2022-11-06T11:23:44;100895.59;;;32.03;41.43
23619;BME280;18207;32.078;34.818;2022-11-06T11:26:20;100896.81;;;32.02;41.80
23619;BME280;18207;32.078;34.818;2022-11-06T11:28:56;100891.56;;;31.97;41.87
23619;BME280;18207;32.078;34.818;2022-11-06T11:31:30;100891.59;;;31.90;41.94
23619;BME280;18207;32.078;34.818;2022-11-06T11:34:06;100894.44;;;31.83;41.77
23619;BME280;18207;32.078;34.818;2022-11-06T11:36:50;100899.72;;;31.74;42.07
23619;BME280;18207;32.078;34.818;2022-11-06T11:39:26;100901.78;;;31.70;41.69
23619;BME280;18207;32.078;34.818;2022-11-06T11:42:20;100894.88;;;31.64;41.59
23619;BME280;18207;32.078;34.818;2022-11-06T11:45:15;100894.88;;;31.60;41.64
23619;BME280;18207;32.078;34.818;2022-11-06T11:47:48;100895.28;;;31.59;42.16
23619;BME280;18207;32.078;34.818;2022-11-06T11:50:28;100898.94;;;31.59;42.17
23619;BME280;18207;32.078;34.818;2022-11-06T11:53:11;100891.63;;;31.58;41.70
23619;BME280;18207;32.078;34.818;2022-11-06T11:55:47;100895.66;;;31.54;41.86
23619;BME280;18207;32.078;34.818;2022-11-06T11:58:22;100899.31;;;31.54;41.83
23619;BME280;18207;32.078;34.818;2022-11-06T12:00:57;100899.72;;;31.53;42.25
23619;BME280;18207;32.078;34.818;2022-11-06T12:03:40;100896.50;;;31.51;42.49
23619;BME280;18207;32.078;34.818;2022-11-06T12:06:15;100890.81;;;31.51;42.04
23619;BME280;18207;32.078;34.818;2022-11-06T12:08:51;100902.16;;;31.51;42.32
23619;BME280;18207;32.078;34.818;2022-11-06T12:11:25;100895.66;;;31.50;42.43
23619;BME280;18207;32.078;34.818;2022-11-06T12:14:24;100894.88;;;31.46;42.14
23619;BME280;18207;32.078;34.818;2022-11-06T12:17:03;100895.66;;;31.43;42.03
23619;BME280;18207;32.078;34.818;2022-11-06T12:19:38;100898.94;;;31.42;42.40
23619;BME280;18207;32.078;34.818;2022-11-06T12:22:23;100899.31;;;31.40;42.44
23619;BME280;18207;32.078;34.818;2022-11-06T12:24:59;100896.47;;;31.37;42.71
23619;BME280;18207;32.078;34.818;2022-11-06T12:27:36;100903.38;;;31.36;42.66
23619;BME280;18207;32.078;34.818;2022-11-06T12:30:12;100906.22;;;31.33;42.85
23619;BME280;18207;32.078;34.818;2022-11-06T12:33:10;100902.16;;;31.30;42.21
23619;BME280;18207;32.078;34.818;2022-11-06T12:35:47;100903.38;;;31.29;42.81
23619;BME280;18207;32.078;34.818;2022-11-06T12:38:28;100910.69;;;31.30;42.88
23619;BME280;18207;32.078;34.818;2022-11-06T12:41:05;100899.31;;;31.27;42.81
23619;BME280;18207;32.078;34.818;2022-11-06T12:43:43;100898.50;;;31.26;42.50
23619;BME280;18207;32.078;34.818;2022-11-06T12:46:32;100892.41;;;31.24;42.22
23619;BME280;18207;32.078;34.818;2022-11-06T12:49:35;100898.09;;;31.21;42.78
23619;BME280;18207;32.078;34.818;2022-11-06T12:52:26;100889.56;;;31.21;42.26
23619;BME280;18207;32.078;34.818;2022-11-06T12:55:17;100896.47;;;31.20;42.86
23619;BME280;18207;32.078;34.818;2022-11-06T12:58:10;100895.66;;;31.19;42.45
23619;BME280;18207;32.078;34.818;2022-11-06T13:00:57;100902.97;;;31.17;42.90
23619;BME280;18207;32.078;34.818;2022-11-06T13:04:10;100895.25;;;31.17;43.07
23619;BME280;18207;32.078;34.818;2022-11-06T13:10:49;100895.66;;;31.12;42.78
23619;BME280;18207;32.078;34.818;2022-11-06T13:13:35;100895.66;;;31.12;42.71
23619;BME280;18207;32.078;34.818;2022-11-06T13:16:20;100890.38;;;31.11;43.04
23619;BME280;18207;32.078;34.818;2022-11-06T13:19:04;100893.22;;;31.11;43.04
23619;BME280;18207;32.078;34.818;2022-11-06T13:22:10;100903.78;;;31.10;42.66
23619;BME280;18207;32.078;34.818;2022-11-06T13:24:50;100894.41;;;31.10;42.90
23619;BME280;18207;32.078;34.818;2022-11-06T13:27:33;100896.03;;;31.07;42.73
23619;BME280;18207;32.078;34.818;2022-11-06T13:30:15;100898.09;;;31.07;42.38
23619;BME280;18207;32.078;34.818;2022-11-06T13:33:04;100897.25;;;31.06;42.90
23619;BME280;18207;32.078;34.818;2022-11-06T13:35:39;100891.56;;;31.03;43.05